Time;durP1;ratioP1;P1;durP2;ratioP2;P2;SDS_P1;SDS_P2;PMS_P1;PMS_P2;Temp;Humidity;BMP_temperature;BMP_pressure;BME280_temperature;BME280_humidity;BME280_pressure;Samples;Min_cycle;Max_cycle;Signal;HPM_P1;HPM_P2
2022/03/07 00:01:30;;;;;;;26.90;17.55;;;;;;;1.77;55.01;98553.19;5042157;28;20414;-62
2022/03/07 00:03:56;;;;;;;26.92;16.55;;;;;;;2.08;55.89;98602.63;5040441;28;20120;-63
2022/03/07 00:06:22;;;;;;;26.45;15.90;;;;;;;2.08;55.94;98600.06;5040412;28;20049;-64
2022/03/07 00:08:48;;;;;;;26.50;16.65;;;;;;;2.06;56.37;98607.03;5044624;28;20029;-63
2022/03/07 00:11:15;;;;;;;28.58;16.83;;;;;;;1.97;55.96;98599.88;5042342;28;20148;-63
2022/03/07 00:13:41;;;;;;;28.05;17.42;;;;;;;1.84;56.73;98607.47;5043555;28;20029;-63
2022/03/07 00:16:06;;;;;;;26.27;16.42;;;;;;;1.57;57.11;98607.34;5046412;28;20328;-64
2022/03/07 00:18:32;;;;;;;27.77;17.38;;;;;;;1.86;57.02;98623.59;5041669;28;20036;-63
2022/03/07 00:20:57;;;;;;;29.40;17.30;;;;;;;1.55;57.25;98586.91;5042819;28;20025;-62
2022/03/07 00:23:22;;;;;;;28.98;17.65;;;;;;;1.73;56.79;98603.81;5036111;28;20380;-63
2022/03/07 00:25:48;;;;;;;28.60;16.95;;;;;;;1.83;57.49;98618.66;5037349;28;20021;-64
2022/03/07 00:28:16;;;;;;;31.02;18.48;;;;;;;1.82;57.44;98617.81;5035759;28;20379;-62
2022/03/07 00:30:42;;;;;;;28.08;17.38;;;;;;;1.78;56.85;98607.84;5041727;28;20025;-63
2022/03/07 00:33:08;;;;;;;28.73;17.08;;;;;;;1.78;57.26;98613.78;5036022;28;20060;-62
2022/03/07 00:35:33;;;;;;;26.38;15.73;;;;;;;1.75;57.10;98613.97;5042908;28;20057;-62
2022/03/07 00:37:59;;;;;;;26.98;16.00;;;;;;;1.77;57.33;98613.88;5025928;28;20047;-63
2022/03/07 00:40:24;;;;;;;24.35;16.10;;;;;;;1.66;57.52;98622.19;5042304;28;20036;-62
2022/03/07 00:42:50;;;;;;;27.38;16.38;;;;;;;1.28;57.69;98553.47;5043175;28;20065;-63
2022/03/07 00:45:15;;;;;;;27.50;17.00;;;;;;;1.62;57.73;98616.41;5039008;28;20122;-62
2022/03/07 00:47:40;;;;;;;26.42;15.75;;;;;;;1.74;58.26;98620.00;5026425;28;20082;-62
2022/03/07 00:50:07;;;;;;;26.80;16.15;;;;;;;1.75;58.42;98615.72;5056749;28;20025;-63
2022/03/07 00:52:32;;;;;;;27.98;16.25;;;;;;;1.66;58.23;98635.84;5041324;28;20121;-62
2022/03/07 00:54:58;;;;;;;28.08;15.98;;;;;;;1.66;57.79;98635.84;5038347;28;20085;-64
2022/03/07 00:57:23;;;;;;;25.70;16.55;;;;;;;1.66;57.61;98633.28;5041984;28;20522;-63
2022/03/07 00:59:49;;;;;;;24.42;15.18;;;;;;;1.63;57.55;98632.63;5036274;28;20123;-62
2022/03/07 01:02:14;;;;;;;24.38;15.05;;;;;;;1.07;58.73;98576.00;5022934;28;20162;-63
2022/03/07 01:04:39;;;;;;;24.05;14.70;;;;;;;1.52;58.54;98633.25;5040909;28;20021;-66
2022/03/07 01:07:05;;;;;;;23.65;14.85;;;;;;;1.55;58.36;98627.91;5023951;28;20025;-63
2022/03/07 01:09:30;;;;;;;26.33;15.65;;;;;;;1.56;58.41;98619.34;5042020;28;20684;-63
2022/03/07 01:11:56;;;;;;;24.08;14.38;;;;;;;1.53;58.06;98629.75;5039806;28;20028;-63
2022/03/07 01:14:21;;;;;;;26.15;15.40;;;;;;;1.23;58.45;98586.22;5024609;28;20021;-63
2022/03/07 01:16:47;;;;;;;27.15;15.60;;;;;;;1.13;58.95;98580.75;5043733;28;20489;-63
2022/03/07 01:19:12;;;;;;;23.88;14.73;;;;;;;1.02;59.25;98557.50;5047804;28;20104;-62
2022/03/07 01:21:39;;;;;;;26.63;15.55;;;;;;;1.42;58.17;98630.34;5055915;28;20024;-62
2022/03/07 01:24:06;;;;;;;22.75;14.00;;;;;;;1.32;58.50;98632.63;5056435;28;20029;-64
2022/03/07 01:26:32;;;;;;;24.77;15.00;;;;;;;1.40;59.21;98623.69;5036787;28;20404;-63
2022/03/07 01:28:57;;;;;;;24.05;15.48;;;;;;;1.37;59.70;98617.00;5051872;28;20040;-63
2022/03/07 01:31:23;;;;;;;26.55;15.40;;;;;;;1.27;60.25;98615.84;5041279;28;20032;-63
2022/03/07 01:33:48;;;;;;;24.08;14.60;;;;;;;1.25;60.18;98615.13;5054466;28;20066;-63
2022/03/07 01:36:14;;;;;;;24.45;15.02;;;;;;;1.37;60.00;98613.59;5048726;28;20490;-63
2022/03/07 01:38:39;;;;;;;25.10;14.60;;;;;;;1.37;59.99;98606.75;5035758;28;20032;-63
2022/03/07 01:41:04;;;;;;;25.45;15.50;;;;;;;0.93;59.85;98541.75;5025093;28;20144;-63
2022/03/07 01:43:30;;;;;;;25.35;14.20;;;;;;;1.34;59.92;98620.53;5042180;28;20561;-63
2022/03/07 01:45:56;;;;;;;24.05;15.13;;;;;;;0.91;60.35;98555.53;5034929;28;20106;-63
2022/03/07 01:48:21;;;;;;;27.63;15.10;;;;;;;0.90;59.86;98562.38;5021921;28;20188;-64
2022/03/07 01:50:46;;;;;;;28.80;15.32;;;;;;;0.89;60.63;98539.44;5041398;28;20025;-63
2022/03/07 01:53:12;;;;;;;25.50;14.30;;;;;;;1.11;60.42;98587.69;5041200;28;20655;-63
2022/03/07 01:55:37;;;;;;;26.05;15.50;;;;;;;1.15;60.47;98596.88;5020403;28;20025;-63
2022/03/07 01:58:03;;;;;;;24.92;15.02;;;;;;;1.19;60.67;98595.78;5042168;28;20047;-63
2022/03/07 02:00:29;;;;;;;25.17;14.25;;;;;;;1.23;59.95;98579.34;5033616;28;20037;-61
2022/03/07 02:02:55;;;;;;;24.35;14.63;;;;;;;1.02;60.01;98540.38;5031021;28;20079;-63
2022/03/07 02:05:21;;;;;;;25.70;15.15;;;;;;;1.27;59.45;98587.69;5041303;28;20565;-64
2022/03/07 02:07:46;;;;;;;24.98;14.77;;;;;;;1.22;59.77;98603.28;5038681;28;20025;-64
2022/03/07 02:10:12;;;;;;;23.55;14.07;;;;;;;1.03;59.41;98565.09;5041366;28;20036;-62
2022/03/07 02:12:38;;;;;;;23.15;13.95;;;;;;;1.21;59.13;98604.22;5023522;28;20051;-62
2022/03/07 02:15:05;;;;;;;24.55;13.73;;;;;;;0.90;59.39;98577.75;5034710;28;20032;-62
2022/03/07 02:17:31;;;;;;;23.08;13.85;;;;;;;0.81;59.60;98559.53;5029082;28;20025;-64
2022/03/07 02:19:56;;;;;;;25.65;15.02;;;;;;;1.06;59.36;98597.38;5020004;28;20052;-63
2022/03/07 02:22:25;;;;;;;23.00;14.02;;;;;;;1.14;59.73;98602.91;5040738;28;20052;-62
2022/03/07 02:24:50;;;;;;;22.77;13.90;;;;;;;1.14;59.36;98595.22;5042851;28;20029;-63
2022/03/07 02:27:18;;;;;;;23.83;13.82;;;;;;;1.17;59.54;98596.78;5037722;28;20755;-62
2022/03/07 02:29:44;;;;;;;25.90;15.32;;;;;;;1.09;59.89;98595.47;5057148;28;20029;-63
2022/03/07 02:32:10;;;;;;;25.17;14.82;;;;;;;1.08;60.04;98603.25;5035651;28;20036;-63
2022/03/07 02:34:35;;;;;;;24.42;14.63;;;;;;;0.99;60.39;98609.72;5040626;28;20025;-63
2022/03/07 02:37:00;;;;;;;22.27;13.30;;;;;;;0.85;60.39;98607.88;5038985;28;20109;-64
2022/03/07 02:39:26;;;;;;;23.83;14.73;;;;;;;0.70;61.13;98608.72;5024289;28;20406;-63
2022/03/07 02:41:51;;;;;;;23.00;13.48;;;;;;;0.73;61.98;98606.84;5038518;28;20398;-62
2022/03/07 02:44:17;;;;;;;21.98;13.35;;;;;;;0.90;61.16;98603.34;5037941;28;20543;-62
2022/03/07 02:46:43;;;;;;;26.65;13.45;;;;;;;0.83;61.03;98604.59;5027713;28;20063;-63
2022/03/07 02:49:08;;;;;;;24.30;14.57;;;;;;;0.69;61.29;98604.50;5039462;28;20037;-63
2022/03/07 02:51:34;;;;;;;24.52;15.02;;;;;;;0.41;61.43;98549.72;5054160;28;20078;-63
2022/03/07 02:54:00;;;;;;;23.60;13.90;;;;;;;0.81;60.92;98601.28;5051595;28;20472;-64
2022/03/07 02:56:25;;;;;;;23.85;13.90;;;;;;;0.38;61.54;98542.19;5040849;28;20494;-62
2022/03/07 02:58:51;;;;;;;24.83;14.70;;;;;;;0.66;61.06;98587.59;5055475;28;20036;-62
2022/03/07 03:01:16;;;;;;;23.67;14.48;;;;;;;0.69;61.29;98594.28;5039579;28;20032;-63
2022/03/07 03:03:42;;;;;;;23.60;13.98;;;;;;;0.41;61.19;98543.78;5026913;28;20040;-63
2022/03/07 03:06:07;;;;;;;24.35;14.18;;;;;;;0.71;61.74;98603.53;5031790;28;20030;-63
2022/03/07 03:08:33;;;;;;;26.92;14.95;;;;;;;0.76;60.79;98598.16;5045159;28;20372;-62
2022/03/07 03:10:59;;;;;;;22.95;14.70;;;;;;;0.71;61.25;98588.19;5056600;28;20082;-63
2022/03/07 03:13:24;;;;;;;22.10;13.70;;;;;;;0.81;61.46;98587.69;5025818;28;20071;-63
2022/03/07 03:15:52;;;;;;;24.63;14.57;;;;;;;0.85;61.79;98594.28;5043190;28;20082;-63
2022/03/07 03:18:18;;;;;;;24.58;14.63;;;;;;;0.76;61.42;98593.84;5042495;28;20387;-62
2022/03/07 03:20:46;;;;;;;23.00;13.93;;;;;;;0.80;61.39;98598.81;5040316;28;20804;-63
2022/03/07 03:23:11;;;;;;;22.92;13.52;;;;;;;0.72;61.55;98594.13;5044229;28;20029;-63
2022/03/07 03:25:37;;;;;;;23.83;14.23;;;;;;;0.75;61.48;98599.09;5044063;28;20067;-63
2022/03/07 03:28:03;;;;;;;21.27;13.05;;;;;;;0.60;61.10;98580.22;5037141;28;20025;-63
2022/03/07 03:30:28;;;;;;;22.20;13.85;;;;;;;0.71;62.01;98605.25;5037598;28;20025;-63
2022/03/07 03:32:54;;;;;;;27.77;14.13;;;;;;;0.64;62.64;98599.66;5041513;28;20021;-64
2022/03/07 03:35:19;;;;;;;22.80;13.93;;;;;;;0.64;62.01;98601.38;5038615;28;20468;-63
2022/03/07 03:37:45;;;;;;;22.08;13.93;;;;;;;0.36;61.89;98542.25;5057741;28;20048;-62
2022/03/07 03:40:11;;;;;;;22.42;13.73;;;;;;;0.76;61.64;98603.28;5031796;28;20543;-63
2022/03/07 03:42:37;;;;;;;24.92;13.82;;;;;;;0.50;62.43;98592.72;5028569;28;20035;-62
2022/03/07 03:45:08;;;;;;;23.52;14.80;;;;;;;0.59;62.49;98600.81;5041748;28;20036;-63
2022/03/07 03:47:35;;;;;;;24.65;14.18;;;;;;;0.46;62.22;98582.72;5033664;28;20063;-62
2022/03/07 03:50:02;;;;;;;23.23;13.98;;;;;;;0.52;62.96;98597.75;5042794;28;20100;-64
2022/03/07 03:52:27;;;;;;;23.77;14.32;;;;;;;0.30;63.27;98582.72;5039545;28;20017;-62
2022/03/07 03:54:55;;;;;;;24.30;13.95;;;;;;;0.41;63.82;98595.75;5041378;28;20032;-63
2022/03/07 03:57:21;;;;;;;23.88;14.10;;;;;;;0.09;63.73;98541.19;5057653;28;20631;-64
2022/03/07 03:59:47;;;;;;;27.05;13.77;;;;;;;0.41;63.38;98577.84;5040931;28;20112;-62
2022/03/07 04:02:12;;;;;;;26.63;14.25;;;;;;;0.05;62.43;98521.78;5044603;28;20027;-62
2022/03/07 04:04:37;;;;;;;25.27;14.30;;;;;;;0.55;62.68;98595.03;5041766;28;20045;-64
2022/03/07 04:07:03;;;;;;;24.45;14.57;;;;;;;0.41;63.02;98587.25;5036813;28;20032;-62
2022/03/07 04:09:28;;;;;;;26.80;14.85;;;;;;;0.48;62.76;98599.66;5043137;28;20332;-64
2022/03/07 04:11:54;;;;;;;25.30;14.82;;;;;;;0.48;62.80;98598.81;5060908;28;20024;-63
2022/03/07 04:14:20;;;;;;;27.25;14.10;;;;;;;0.42;63.13;98576.94;5044226;28;20112;-64
2022/03/07 04:16:46;;;;;;;27.38;14.55;;;;;;;0.51;62.35;98593.53;5033985;28;20946;-63
2022/03/07 04:19:12;;;;;;;24.90;13.77;;;;;;;0.47;62.19;98597.16;5042272;28;20119;-62
2022/03/07 04:21:39;;;;;;;21.75;12.82;;;;;;;0.36;63.85;98584.94;5034522;28;20025;-63
2022/03/07 04:24:05;;;;;;;24.13;14.15;;;;;;;0.11;63.76;98545.31;5058422;28;20113;-64
2022/03/07 04:26:31;;;;;;;24.45;14.70;;;;;;;-0.04;63.14;98534.19;5042633;28;20082;-63
2022/03/07 04:28:57;;;;;;;22.65;13.30;;;;;;;0.26;62.92;98596.56;5055224;28;20807;-62
2022/03/07 04:31:22;;;;;;;23.98;14.07;;;;;;;-0.16;63.67;98534.81;5058192;28;20017;-63
2022/03/07 04:33:48;;;;;;;23.75;14.00;;;;;;;0.29;63.35;98599.81;5027306;28;20120;-63
2022/03/07 04:36:15;;;;;;;25.00;13.85;;;;;;;0.36;63.61;98592.59;5040706;28;20171;-64
2022/03/07 04:38:41;;;;;;;25.10;14.07;;;;;;;0.35;64.09;98583.31;5038736;28;20112;-64
2022/03/07 04:41:06;;;;;;;23.60;14.45;;;;;;;0.38;63.73;98603.59;5042993;28;20588;-63
2022/03/07 04:43:32;;;;;;;24.15;14.88;;;;;;;0.19;64.10;98583.28;5040049;28;20069;-63
2022/03/07 04:45:58;;;;;;;25.70;14.18;;;;;;;0.23;64.75;98601.84;5058538;28;20165;-63
2022/03/07 04:48:24;;;;;;;25.65;15.38;;;;;;;0.23;64.24;98589.06;5029879;28;20471;-63
2022/03/07 04:50:50;;;;;;;26.60;13.23;;;;;;;0.20;64.62;98577.22;5042938;28;20115;-62
2022/03/07 04:53:15;;;;;;;25.40;14.32;;;;;;;0.33;64.62;98595.34;5040014;28;20340;-63
2022/03/07 04:55:41;;;;;;;24.85;13.43;;;;;;;0.35;64.04;98594.34;5045029;28;20029;-63
2022/03/07 04:58:06;;;;;;;25.55;14.25;;;;;;;0.40;63.94;98606.88;5019755;28;20479;-62
2022/03/07 05:00:32;;;;;;;26.33;14.00;;;;;;;0.40;63.75;98609.44;5038652;28;20756;-63
2022/03/07 05:02:57;;;;;;;24.65;14.18;;;;;;;0.03;64.13;98539.78;5036568;28;20037;-62
2022/03/07 05:05:22;;;;;;;27.17;14.30;;;;;;;0.31;63.80;98594.56;5035411;28;20044;-62
2022/03/07 05:07:51;;;;;;;24.63;14.68;;;;;;;0.27;64.39;98611.81;5033845;28;20083;-63
2022/03/07 05:10:17;;;;;;;23.05;13.50;;;;;;;0.31;64.65;98600.53;5036578;28;20640;-63
2022/03/07 05:12:43;;;;;;;26.65;14.25;;;;;;;0.32;64.12;98611.59;5042943;28;20037;-63
2022/03/07 05:15:09;;;;;;;26.08;14.32;;;;;;;0.38;64.35;98616.38;5044398;28;20036;-62
2022/03/07 05:17:48;;;;;;;24.27;14.10;;;;;;;0.21;64.04;98612.16;5028745;28;20029;-63
2022/03/07 05:20:15;;;;;;;27.58;15.77;;;;;;;0.19;64.65;98608.84;5023632;28;20024;-62
2022/03/07 05:22:41;;;;;;;28.33;15.20;;;;;;;0.28;64.84;98607.53;5052955;28;20021;-62
2022/03/07 05:25:07;;;;;;;26.75;15.43;;;;;;;0.32;64.87;98622.63;5032195;28;20071;-63
2022/03/07 05:27:33;;;;;;;26.50;15.05;;;;;;;-0.01;64.90;98566.41;5033559;28;20808;-62
2022/03/07 05:29:58;;;;;;;30.00;15.70;;;;;;;0.27;64.52;98618.66;5057657;28;20048;-63
2022/03/07 05:32:23;;;;;;;25.17;14.75;;;;;;;0.25;64.68;98623.88;5040131;28;20074;-62
2022/03/07 05:34:49;;;;;;;29.25;15.48;;;;;;;0.21;64.55;98624.94;5042864;28;20029;-63
2022/03/07 05:37:14;;;;;;;29.20;16.98;;;;;;;0.17;65.37;98631.13;5041423;28;20387;-62
2022/03/07 05:39:40;;;;;;;78.40;48.30;;;;;;;0.03;65.07;98634.38;5038697;28;20078;-62
2022/03/07 05:42:06;;;;;;;82.78;55.15;;;;;;;-0.10;65.07;98634.16;5039236;28;20029;-62
2022/03/07 05:44:31;;;;;;;80.20;50.72;;;;;;;-0.17;65.36;98626.88;5035809;28;20025;-63
2022/03/07 05:46:57;;;;;;;83.65;55.35;;;;;;;-0.11;64.93;98618.91;5029610;28;20541;-63
2022/03/07 05:49:22;;;;;;;63.88;42.03;;;;;;;-0.17;64.97;98588.53;5036614;28;20036;-63
2022/03/07 05:51:48;;;;;;;43.63;29.08;;;;;;;0.08;64.41;98626.47;5032741;28;20083;-64
2022/03/07 05:54:13;;;;;;;43.97;26.25;;;;;;;-0.06;64.45;98627.97;5044447;28;20051;-62
2022/03/07 05:56:39;;;;;;;35.38;21.92;;;;;;;-0.16;64.90;98628.56;5032730;28;20033;-63
2022/03/07 05:59:04;;;;;;;33.60;19.00;;;;;;;-0.02;64.27;98636.31;5041176;28;20033;-62
2022/03/07 06:01:30;;;;;;;32.70;17.17;;;;;;;-0.52;65.40;98583.47;5037988;28;20039;-63
2022/03/07 06:03:55;;;;;;;26.60;15.45;;;;;;;-0.15;64.58;98617.41;5055872;28;20099;-63
2022/03/07 06:06:21;;;;;;;28.38;15.18;;;;;;;-0.03;63.95;98637.25;5045133;28;20415;-63
2022/03/07 06:08:46;;;;;;;28.40;15.80;;;;;;;-0.63;65.28;98576.34;5037809;28;20040;-64
2022/03/07 06:11:12;;;;;;;27.08;15.38;;;;;;;-0.24;64.48;98622.09;5029668;28;20034;-62
2022/03/07 06:13:37;;;;;;;25.55;15.05;;;;;;;-0.19;65.03;98629.50;5027812;28;20021;-63
2022/03/07 06:16:03;;;;;;;32.70;15.35;;;;;;;-0.37;64.81;98592.09;5042226;28;20353;-63
2022/03/07 06:18:28;;;;;;;33.80;16.13;;;;;;;-0.12;64.09;98641.09;5038039;28;20026;-62
2022/03/07 06:20:54;;;;;;;32.28;16.08;;;;;;;-0.07;64.00;98638.31;5039502;28;20029;-63
2022/03/07 06:23:20;;;;;;;28.15;15.25;;;;;;;0.16;63.87;98649.91;5039109;28;20033;-62
2022/03/07 06:25:45;;;;;;;31.05;16.10;;;;;;;0.10;63.80;98658.72;5003221;28;20032;-63
2022/03/07 06:28:11;;;;;;;29.20;15.27;;;;;;;-0.07;64.37;98645.97;5041095;28;20104;-63
2022/03/07 06:30:36;;;;;;;32.30;16.67;;;;;;;0.12;64.21;98656.91;5041132;28;20107;-62
2022/03/07 06:33:02;;;;;;;29.90;16.27;;;;;;;0.07;63.57;98635.84;5039019;28;20663;-63
2022/03/07 06:35:27;;;;;;;32.10;16.55;;;;;;;0.10;64.02;98663.00;5041472;28;20479;-62
2022/03/07 06:37:53;;;;;;;31.80;15.88;;;;;;;0.06;63.86;98659.78;5042570;28;20040;-62
2022/03/07 06:40:20;;;;;;;35.67;16.48;;;;;;;0.23;64.23;98661.47;5040479;28;20475;-62
2022/03/07 06:42:48;;;;;;;28.17;15.77;;;;;;;0.35;63.64;98649.81;5038864;28;20060;-62
2022/03/07 06:45:16;;;;;;;33.60;17.25;;;;;;;0.38;63.24;98659.84;5042640;28;20104;-63
2022/03/07 06:47:43;;;;;;;38.03;20.55;;;;;;;0.36;63.78;98659.94;5040191;28;20029;-62
2022/03/07 06:50:09;;;;;;;35.08;23.50;;;;;;;0.30;63.21;98675.59;5039510;28;20013;-62
2022/03/07 06:52:34;;;;;;;43.97;20.50;;;;;;;0.31;63.47;98681.53;5041143;28;20039;-61
2022/03/07 06:55:00;;;;;;;34.85;18.75;;;;;;;0.12;64.32;98690.16;5044249;28;20040;-61
2022/03/07 06:57:25;;;;;;;38.85;17.73;;;;;;;0.39;63.16;98692.22;5045048;28;20094;-62
2022/03/07 06:59:51;;;;;;;37.67;17.60;;;;;;;0.10;63.90;98651.06;5025928;28;20140;-63
2022/03/07 07:02:16;;;;;;;41.35;17.13;;;;;;;0.47;63.67;98699.50;5042681;28;20115;-62
2022/03/07 07:04:42;;;;;;;40.67;17.90;;;;;;;0.41;62.82;98695.53;5040390;28;20071;-62
2022/03/07 07:07:07;;;;;;;38.67;21.17;;;;;;;0.13;63.16;98653.47;5044209;28;20474;-62
2022/03/07 07:09:33;;;;;;;33.67;19.98;;;;;;;0.53;63.58;98700.03;5046265;28;20015;-62
2022/03/07 07:11:58;;;;;;;32.72;20.08;;;;;;;0.51;63.92;98696.72;5035248;28;20039;-62
2022/03/07 07:14:24;;;;;;;40.25;22.73;;;;;;;0.49;63.20;98683.19;5053940;28;20430;-62
2022/03/07 07:16:49;;;;;;;44.53;26.60;;;;;;;0.57;63.91;98708.38;5044702;28;20467;-62
2022/03/07 07:19:14;;;;;;;42.58;28.52;;;;;;;0.54;63.26;98706.78;5045345;28;20024;-62
2022/03/07 07:21:40;;;;;;;45.08;28.17;;;;;;;0.50;63.87;98702.72;5039480;28;20017;-63
2022/03/07 07:24:07;;;;;;;43.75;26.20;;;;;;;0.49;63.60;98708.75;5040476;28;20120;-62
2022/03/07 07:26:32;;;;;;;37.80;22.40;;;;;;;0.53;63.38;98696.63;5040927;28;20025;-61
2022/03/07 07:28:58;;;;;;;32.35;19.83;;;;;;;0.52;63.73;98700.09;5042968;28;20022;-62
2022/03/07 07:31:23;;;;;;;33.03;19.92;;;;;;;0.55;63.53;98716.13;5037883;28;20025;-62
2022/03/07 07:33:49;;;;;;;33.10;19.60;;;;;;;0.53;63.71;98699.16;4980775;28;20044;-62
2022/03/07 07:36:14;;;;;;;37.08;19.85;;;;;;;0.60;63.23;98704.81;5042426;28;20032;-62
2022/03/07 07:38:40;;;;;;;38.20;18.23;;;;;;;0.50;64.45;98701.91;5040591;28;20025;-62
2022/03/07 07:41:05;;;;;;;32.47;17.88;;;;;;;0.30;64.00;98652.59;5034117;28;20397;-59
2022/03/07 07:43:31;;;;;;;34.88;17.42;;;;;;;0.80;63.14;98716.56;5036703;28;20056;-62
2022/03/07 07:45:56;;;;;;;32.15;18.27;;;;;;;0.81;63.70;98710.56;5027329;28;20033;-62
2022/03/07 07:48:22;;;;;;;35.03;18.98;;;;;;;0.87;63.38;98715.34;5033272;28;20032;-62
2022/03/07 07:50:47;;;;;;;37.17;18.85;;;;;;;0.91;63.26;98724.50;5043591;28;20235;-62
2022/03/07 07:53:12;;;;;;;41.03;20.70;;;;;;;0.93;63.76;98726.09;5042638;28;20029;-62
2022/03/07 07:55:38;;;;;;;39.22;19.67;;;;;;;0.93;64.08;98712.44;5035305;28;20049;-62
2022/03/07 07:58:03;;;;;;;38.17;20.00;;;;;;;1.01;63.95;98720.56;5025196;28;20093;-61
2022/03/07 08:00:29;;;;;;;39.55;19.95;;;;;;;0.68;64.10;98660.00;5041122;28;20095;-62
2022/03/07 08:02:54;;;;;;;36.05;19.30;;;;;;;1.10;64.68;98726.94;5037542;28;20422;-62
2022/03/07 08:05:20;;;;;;;41.25;20.77;;;;;;;0.83;63.23;98678.00;5037740;28;20464;-63
2022/03/07 08:07:46;;;;;;;42.55;23.10;;;;;;;1.12;63.71;98722.53;5042685;28;20361;-62
2022/03/07 08:10:13;;;;;;;36.33;20.63;;;;;;;1.19;64.83;98733.25;5042062;28;20036;-62
2022/03/07 08:12:39;;;;;;;45.25;24.00;;;;;;;1.20;65.15;98734.94;5038798;28;20021;-63
2022/03/07 08:15:05;;;;;;;47.55;26.65;;;;;;;1.17;65.14;98719.72;5025203;28;20040;-61
2022/03/07 08:17:31;;;;;;;53.22;28.67;;;;;;;1.26;64.67;98730.31;5040799;28;20484;-63
2022/03/07 08:19:57;;;;;;;55.20;28.63;;;;;;;0.93;64.66;98669.75;5023478;28;20044;-62
2022/03/07 08:22:22;;;;;;;52.72;29.75;;;;;;;1.26;64.54;98722.63;5039120;28;20033;-62
2022/03/07 08:24:47;;;;;;;53.22;29.65;;;;;;;1.28;64.58;98712.31;5037484;28;20025;-61
2022/03/07 08:27:13;;;;;;;46.53;24.90;;;;;;;1.38;65.12;98722.88;5040148;28;20025;-62
2022/03/07 08:29:38;;;;;;;40.05;23.48;;;;;;;1.36;65.17;98714.44;5021992;28;20024;-62
2022/03/07 08:32:04;;;;;;;44.10;23.88;;;;;;;1.38;65.44;98710.88;5041794;28;20539;-62
2022/03/07 08:34:31;;;;;;;34.83;21.80;;;;;;;1.50;65.66;98722.19;5040654;28;20044;-62
2022/03/07 08:36:57;;;;;;;35.88;20.92;;;;;;;1.26;65.41;98678.22;5044139;28;20551;-63
2022/03/07 08:39:22;;;;;;;40.58;21.25;;;;;;;1.54;65.63;98713.41;5020806;28;20044;-62
2022/03/07 08:41:47;;;;;;;39.42;21.45;;;;;;;1.26;65.74;98657.75;5036991;28;20100;-62
2022/03/07 08:44:13;;;;;;;34.95;20.00;;;;;;;1.62;65.46;98713.00;5040460;28;20376;-62
2022/03/07 08:46:39;;;;;;;36.97;20.13;;;;;;;1.28;65.81;98651.63;5037592;28;20021;-62
2022/03/07 08:49:05;;;;;;;36.78;21.17;;;;;;;1.67;66.25;98719.50;5044527;28;20105;-63
2022/03/07 08:51:30;;;;;;;34.08;20.00;;;;;;;1.64;66.66;98714.56;5040653;28;20017;-62
2022/03/07 08:53:56;;;;;;;31.98;18.83;;;;;;;1.24;66.82;98645.03;5042499;28;20033;-62
2022/03/07 08:56:21;;;;;;;32.63;19.23;;;;;;;1.44;66.94;98694.31;5036567;28;20071;-62
2022/03/07 08:58:46;;;;;;;40.88;19.40;;;;;;;1.09;65.78;98608.28;5043756;28;20074;-62
2022/03/07 09:01:12;;;;;;;50.15;21.08;;;;;;;1.60;66.80;98707.13;5038442;28;20033;-61
2022/03/07 09:03:37;;;;;;;40.28;19.80;;;;;;;1.36;67.26;98670.88;5039763;28;20032;-62
2022/03/07 09:06:03;;;;;;;35.92;18.30;;;;;;;1.68;67.71;98704.94;5042248;28;20593;-62
2022/03/07 09:08:28;;;;;;;39.75;19.58;;;;;;;1.66;66.86;98694.81;5040501;28;20642;-62
2022/03/07 09:10:54;;;;;;;34.42;17.45;;;;;;;1.50;67.34;98678.63;5036668;28;20025;-62
2022/03/07 09:13:19;;;;;;;32.17;17.63;;;;;;;1.75;67.85;98702.88;5043037;28;20036;-62
2022/03/07 09:15:45;;;;;;;34.28;17.67;;;;;;;1.56;67.46;98674.91;5042410;28;20074;-63
2022/03/07 09:18:12;;;;;;;34.42;17.75;;;;;;;1.72;68.14;98702.13;5038704;28;20033;-62
2022/03/07 09:20:39;;;;;;;29.73;17.15;;;;;;;1.77;68.09;98701.88;5040080;28;20021;-63
2022/03/07 09:23:04;;;;;;;30.58;18.10;;;;;;;1.50;67.75;98653.00;5042468;28;20696;-63
2022/03/07 09:25:30;;;;;;;29.33;16.52;;;;;;;1.91;66.77;98704.47;5018237;28;20503;-63
2022/03/07 09:27:55;;;;;;;28.02;16.38;;;;;;;2.01;66.72;98703.94;5018373;28;20033;-62
2022/03/07 09:30:21;;;;;;;34.95;17.17;;;;;;;1.82;67.06;98647.78;5037683;28;20663;-62
2022/03/07 09:32:47;;;;;;;30.17;16.70;;;;;;;2.08;66.72;98690.69;5040611;28;20067;-62
2022/03/07 09:35:12;;;;;;;26.83;16.10;;;;;;;2.14;65.89;98693.81;5020525;28;20694;-63
2022/03/07 09:37:38;;;;;;;28.40;16.88;;;;;;;2.14;66.73;98688.69;5037464;28;20021;-63
2022/03/07 09:40:05;;;;;;;26.10;16.08;;;;;;;2.41;65.63;98702.47;5042770;28;20387;-63
2022/03/07 09:42:30;;;;;;;26.08;15.75;;;;;;;2.58;63.89;98701.44;5037811;28;20074;-64
2022/03/07 09:44:56;;;;;;;24.83;14.60;;;;;;;2.68;63.88;98678.59;5057946;28;20022;-63
2022/03/07 09:47:22;;;;;;;26.63;14.75;;;;;;;2.88;61.47;98662.81;5038900;28;20112;-63
2022/03/07 09:49:50;;;;;;;28.20;15.45;;;;;;;3.10;61.41;98691.47;5034443;28;20055;-62
2022/03/07 09:52:15;;;;;;;26.65;15.13;;;;;;;3.19;60.05;98696.84;5036716;28;20246;-62
2022/03/07 09:54:40;;;;;;;25.77;15.35;;;;;;;3.29;59.19;98680.88;5039078;28;20513;-62
2022/03/07 09:57:06;;;;;;;25.13;14.63;;;;;;;3.33;57.23;98688.28;5041115;28;20091;-63
2022/03/07 09:59:34;;;;;;;24.33;15.13;;;;;;;3.40;55.33;98670.72;5042389;28;20103;-64
2022/03/07 10:02:12;;;;;;;36.40;14.00;;;;;;;3.68;55.08;98690.34;5041652;28;20053;-63
2022/03/07 10:04:46;;;;;;;30.58;15.10;;;;;;;3.76;54.33;98679.56;5038999;28;20029;-63
2022/03/07 10:07:12;;;;;;;43.55;15.45;;;;;;;3.90;54.66;98674.34;5044217;28;20033;-63
2022/03/07 10:09:37;;;;;;;23.73;13.57;;;;;;;4.16;52.04;98676.94;5041879;28;20082;-63
2022/03/07 10:12:03;;;;;;;20.30;12.27;;;;;;;4.28;49.99;98668.38;5044009;28;20471;-63
2022/03/07 10:14:49;;;;;;;24.52;13.40;;;;;;;4.41;51.75;98676.09;5041869;28;20110;-63
2022/03/07 10:17:20;;;;;;;20.63;12.68;;;;;;;4.55;49.61;98670.03;5041522;28;20045;-63
2022/03/07 10:19:47;;;;;;;22.25;13.73;;;;;;;4.54;47.54;98624.59;5043369;28;20024;-64
2022/03/07 10:22:24;;;;;;;21.95;13.25;;;;;;;4.75;49.00;98661.75;5040095;28;20045;-63
2022/03/07 10:24:58;;;;;;;21.42;12.55;;;;;;;4.84;48.42;98656.84;5040082;28;20083;-62
2022/03/07 10:27:25;;;;;;;21.48;13.25;;;;;;;4.54;48.29;98604.81;5041638;28;20027;-60
2022/03/07 10:29:51;;;;;;;20.92;13.25;;;;;;;4.93;47.66;98630.47;5039943;28;20028;-62
2022/03/07 10:32:17;;;;;;;21.30;12.90;;;;;;;5.16;46.50;98650.25;5043427;28;20041;-64
2022/03/07 10:34:43;;;;;;;22.40;13.10;;;;;;;4.97;46.59;98624.97;5038385;28;20068;-63
2022/03/07 10:37:09;;;;;;;21.02;12.98;;;;;;;5.22;45.52;98643.03;5045320;28;20473;-63
2022/03/07 10:39:34;;;;;;;23.02;13.75;;;;;;;5.40;47.31;98667.47;5045721;28;20017;-64
2022/03/07 10:41:59;;;;;;;21.90;13.73;;;;;;;5.53;46.05;98667.41;5025559;28;20028;-63
2022/03/07 10:44:31;;;;;;;22.77;13.45;;;;;;;5.54;46.46;98663.91;5044974;28;20025;-63
2022/03/07 10:47:17;;;;;;;22.77;13.45;;;;;;;5.49;46.13;98664.25;5041682;28;20056;-64
2022/03/07 10:50:03;;;;;;;23.52;13.85;;;;;;;5.59;46.02;98662.66;5038184;28;20021;-64
2022/03/07 10:52:44;;;;;;;21.40;12.98;;;;;;;5.64;45.24;98651.16;5043758;28;20446;-63
2022/03/07 10:55:11;;;;;;;22.15;13.60;;;;;;;5.55;45.53;98637.22;5029848;28;20052;-62
2022/03/07 10:57:38;;;;;;;22.05;13.57;;;;;;;5.77;46.23;98655.31;5044555;28;20123;-63
2022/03/07 11:00:06;;;;;;;23.58;13.48;;;;;;;5.52;45.57;98601.31;5041454;28;20021;-64
2022/03/07 11:02:39;;;;;;;20.30;13.10;;;;;;;5.80;44.57;98631.03;5043981;28;20067;-63
2022/03/07 11:05:07;;;;;;;21.95;12.98;;;;;;;5.99;44.89;98637.44;5041614;28;20025;-63
2022/03/07 11:07:36;;;;;;;21.38;14.10;;;;;;;5.97;44.42;98622.91;5041829;28;20029;-63
2022/03/07 11:10:04;;;;;;;22.65;13.23;;;;;;;5.87;43.99;98590.94;5039901;28;20078;-63
2022/03/07 11:12:29;;;;;;;20.55;13.50;;;;;;;6.16;43.48;98632.66;5038993;28;20060;-63
2022/03/07 11:14:58;;;;;;;22.58;13.43;;;;;;;5.89;44.56;98614.88;5034319;28;20121;-62
2022/03/07 11:17:24;;;;;;;20.95;13.35;;;;;;;5.95;44.67;98627.34;5035582;28;20033;-63
2022/03/07 11:19:54;;;;;;;23.67;14.55;;;;;;;6.01;44.29;98618.34;4992719;28;20498;-64